Time;durP1;ratioP1;P1;durP2;ratioP2;P2;SDS_P1;SDS_P2;PMS_P1;PMS_P2;Temp;Humidity;BMP_temperature;BMP_pressure;BME280_temperature;BME280_humidity;BME280_pressure;Samples;Min_cycle;Max_cycle;Signal;HPM_P1;HPM_P2
2023/03/20 00:01:44;;;;;;;3.03;2.47;;;10.70;99.90;;;;;;7303488;19;20345;-79
2023/03/20 00:04:11;;;;;;;3.20;2.90;;;10.70;99.90;;;;;;7286610;19;2004571;-77
2023/03/20 00:06:36;;;;;;;3.73;2.67;;;10.70;99.90;;;;;;7384800;19;20337;-82
2023/03/20 00:09:03;;;;;;;2.80;2.58;;;10.70;99.90;;;;;;7395408;19;20665;-78
2023/03/20 00:11:32;;;;;;;3.08;2.78;;;10.70;99.90;;;;;;7393655;19;20336;-85
2023/03/20 00:14:08;;;;;;;2.83;2.53;;;10.70;99.90;;;;;;7395666;19;20770;-82
2023/03/20 00:16:41;;;;;;;3.03;2.72;;;10.70;99.90;;;;;;7396872;19;20317;-87
2023/03/20 00:19:16;;;;;;;4.00;2.70;;;10.70;99.90;;;;;;7395045;19;20324;-82
2023/03/20 00:21:42;;;;;;;2.50;2.30;;;10.70;99.90;;;;;;7290079;19;2004427;-80
2023/03/20 00:24:08;;;;;;;2.50;2.30;;;10.70;99.90;;;;;;7395836;19;20355;-80
2023/03/20 00:26:34;;;;;;;2.83;2.40;;;10.70;99.90;;;;;;7394316;19;20317;-80
2023/03/20 00:29:00;;;;;;;2.73;2.33;;;10.70;99.90;;;;;;7376771;19;20315;-80
2023/03/20 00:31:30;;;;;;;3.15;2.30;;;10.70;99.90;;;;;;7387956;19;20336;-82
2023/03/20 00:33:58;;;;;;;2.60;2.40;;;10.70;99.90;;;;;;7368731;19;20317;-77
2023/03/20 00:36:23;;;;;;;3.03;2.47;;;10.70;99.90;;;;;;7392027;19;20507;-82
2023/03/20 00:38:49;;;;;;;2.87;2.40;;;10.80;99.90;;;;;;7399464;19;20349;-86
2023/03/20 00:41:31;;;;;;;3.83;2.33;;;10.70;99.90;;;;;;7376412;19;20332;-82
2023/03/20 00:44:17;;;;;;;2.72;2.35;;;10.70;99.90;;;;;;7396299;19;20356;-86
2023/03/20 00:46:43;;;;;;;2.72;2.53;;;10.70;99.90;;;;;;7295285;19;2004356;-78
2023/03/20 00:49:11;;;;;;;3.58;2.70;;;10.70;99.90;;;;;;7387451;19;20304;-79
2023/03/20 00:51:38;;;;;;;3.92;2.50;;;10.60;99.90;;;;;;7388311;19;20372;-80
2023/03/20 00:54:14;;;;;;;3.30;2.70;;;10.60;99.90;;;;;;7387330;19;20839;-80
2023/03/20 00:57:01;;;;;;;3.67;2.75;;;10.50;99.90;;;;;;7284354;19;2004241;-88
2023/03/20 00:59:30;;;;;;;4.78;3.42;;;10.50;99.90;;;;;;7386434;19;20343;-78
2023/03/20 01:01:55;;;;;;;3.75;2.75;;;10.60;99.90;;;;;;7366062;19;20324;-81
2023/03/20 01:04:21;;;;;;;2.78;2.58;;;10.60;99.90;;;;;;7382450;19;20328;-80
2023/03/20 01:06:47;;;;;;;2.63;2.43;;;10.60;99.90;;;;;;7386993;19;20432;-80
2023/03/20 01:09:13;;;;;;;2.85;2.40;;;10.60;99.90;;;;;;7385269;19;20338;-80
2023/03/20 01:11:45;;;;;;;3.00;2.43;;;10.70;99.90;;;;;;7387120;19;20304;-79
2023/03/20 01:14:12;;;;;;;2.15;1.95;;;10.70;99.90;;;;;;7284652;19;2004360;-79
2023/03/20 01:16:38;;;;;;;2.22;2.05;;;10.80;99.90;;;;;;7389036;19;20319;-80
2023/03/20 01:19:04;;;;;;;2.95;2.67;;;10.80;99.90;;;;;;7387410;19;20696;-79
2023/03/20 01:21:30;;;;;;;2.53;2.30;;;10.70;99.90;;;;;;7386527;19;20366;-79
2023/03/20 01:23:55;;;;;;;1.85;1.70;;;10.70;99.90;;;;;;7388441;19;20400;-79
2023/03/20 01:26:30;;;;;;;2.57;2.37;;;10.60;99.90;;;;;;7386518;19;20345;-78
2023/03/20 01:28:56;;;;;;;3.45;2.45;;;10.60;99.90;;;;;;7388241;19;20324;-78
2023/03/20 01:31:22;;;;;;;3.08;2.33;;;10.70;99.90;;;;;;7385844;19;20351;-80
2023/03/20 01:33:48;;;;;;;2.53;2.33;;;10.70;99.90;;;;;;7388116;19;20313;-78
2023/03/20 01:36:14;;;;;;;3.13;2.47;;;10.70;99.90;;;;;;7393264;19;20362;-76
2023/03/20 01:38:40;;;;;;;2.10;2.00;;;10.70;99.90;;;;;;7396262;19;20325;-82
2023/03/20 01:41:07;;;;;;;2.03;1.83;;;10.70;99.90;;;;;;7394358;19;20317;-77
2023/03/20 01:43:36;;;;;;;2.65;2.42;;;10.70;99.90;;;;;;7394483;19;20321;-79
2023/03/20 01:46:22;;;;;;;2.22;2.03;;;10.70;99.90;;;;;;7396187;19;20313;-80
2023/03/20 01:48:50;;;;;;;2.40;2.20;;;10.70;99.90;;;;;;7292696;19;2004604;-79
2023/03/20 01:51:18;;;;;;;2.07;1.87;;;10.70;99.90;;;;;;7395264;19;20329;-78
2023/03/20 01:53:55;;;;;;;2.97;2.67;;;10.80;99.90;;;;;;7394769;19;20316;-80
2023/03/20 01:56:21;;;;;;;2.30;2.10;;;10.70;99.90;;;;;;7395546;19;20321;-77
2023/03/20 01:58:52;;;;;;;2.75;2.47;;;10.70;99.90;;;;;;7394736;19;20389;-81
2023/03/20 02:01:21;;;;;;;2.80;2.60;;;10.70;99.90;;;;;;7393513;19;20328;-81
2023/03/20 02:03:47;;;;;;;2.63;2.42;;;10.70;99.90;;;;;;7394319;19;20321;-81
2023/03/20 02:06:36;;;;;;;2.40;2.20;;;10.60;99.90;;;;;;7395598;19;20353;-79
2023/03/20 02:09:27;;;;;;;3.17;2.30;;;10.60;99.90;;;;;;7291316;19;2004609;-81
2023/03/20 02:11:52;;;;;;;3.90;2.20;;;10.60;99.90;;;;;;7392745;19;20312;-78
2023/03/20 02:14:19;;;;;;;2.50;2.30;;;10.60;99.90;;;;;;7393840;19;20308;-80
2023/03/20 02:17:06;;;;;;;2.10;1.90;;;10.60;99.90;;;;;;7394652;19;20361;-78
2023/03/20 02:20:06;;;;;;;2.20;2.00;;;10.70;99.90;;;;;;7291186;19;2004674;-77
2023/03/20 02:22:51;;;;;;;2.35;2.15;;;10.60;99.90;;;;;;7393548;19;20325;-80
2023/03/20 02:25:46;;;;;;;2.30;2.10;;;10.60;99.90;;;;;;7290815;19;2004149;-80
2023/03/20 02:28:41;;;;;;;2.05;1.95;;;10.60;99.90;;;;;;7291037;19;2004374;-79
2023/03/20 02:31:40;;;;;;;2.53;2.25;;;10.60;99.90;;;;;;7390943;19;21190;-79
2023/03/20 02:34:18;;;;;;;2.50;2.30;;;10.60;99.90;;;;;;7290637;19;2004257;-77
2023/03/20 02:37:16;;;;;;;2.15;2.05;;;10.60;99.90;;;;;;7289350;19;2004352;-78
2023/03/20 02:40:03;;;;;;;2.40;2.20;;;10.60;99.90;;;;;;7286045;19;2004353;-78
2023/03/20 02:42:45;;;;;;;2.20;2.10;;;10.50;99.90;;;;;;7392992;19;20863;-78
2023/03/20 02:45:18;;;;;;;3.20;2.30;;;10.50;99.90;;;;;;7393490;19;20387;-77
2023/03/20 02:47:52;;;;;;;3.40;2.30;;;10.50;99.90;;;;;;7291026;19;2004416;-84
2023/03/20 02:50:43;;;;;;;2.50;2.30;;;10.50;99.90;;;;;;7391628;19;20333;-77
2023/03/20 02:53:24;;;;;;;2.65;2.40;;;10.50;99.90;;;;;;7392677;19;20312;-78
2023/03/20 02:56:19;;;;;;;4.07;2.58;;;10.40;99.90;;;;;;7288851;19;2004407;-80
2023/03/20 02:58:50;;;;;;;2.90;2.47;;;10.40;99.90;;;;;;7290209;19;2004229;-80
2023/03/20 03:01:36;;;;;;;2.45;2.22;;;10.40;99.90;;;;;;7391300;19;20336;-79
2023/03/20 03:04:10;;;;;;;4.70;2.60;;;10.40;99.90;;;;;;7392579;19;20312;-78
2023/03/20 03:06:37;;;;;;;4.90;2.40;;;10.30;99.90;;;;;;7391519;19;20305;-77
2023/03/20 03:09:09;;;;;;;2.90;2.60;;;10.30;99.90;;;;;;7392085;19;20922;-79
2023/03/20 03:11:36;;;;;;;2.55;2.33;;;10.30;99.90;;;;;;7391994;19;20341;-80
2023/03/20 03:14:02;;;;;;;2.83;2.22;;;10.30;99.90;;;;;;7392291;19;20650;-79
2023/03/20 03:16:29;;;;;;;3.33;2.60;;;10.30;99.90;;;;;;7393144;19;20391;-80
2023/03/20 03:19:17;;;;;;;2.65;2.45;;;10.30;99.90;;;;;;7391416;19;20360;-78
2023/03/20 03:21:42;;;;;;;2.67;2.47;;;10.30;99.90;;;;;;7287841;19;2004385;-80
2023/03/20 03:24:34;;;;;;;2.97;2.40;;;10.20;99.90;;;;;;7391171;19;20320;-80
2023/03/20 03:27:03;;;;;;;3.05;2.60;;;10.20;99.90;;;;;;7289593;19;2004193;-78
2023/03/20 03:29:32;;;;;;;2.40;2.20;;;10.20;99.90;;;;;;7391530;19;20893;-79
2023/03/20 03:32:00;;;;;;;2.50;2.30;;;10.20;99.90;;;;;;7392627;19;20317;-79
2023/03/20 03:34:25;;;;;;;2.92;2.67;;;10.20;99.90;;;;;;7391416;19;20646;-81
2023/03/20 03:37:38;;;;;;;2.55;2.35;;;10.20;99.90;;;;;;7392723;19;20328;-78
2023/03/20 03:40:16;;;;;;;3.00;2.70;;;10.20;99.90;;;;;;7287433;19;2004530;-79
2023/03/20 03:42:55;;;;;;;3.22;2.63;;;10.10;99.90;;;;;;7287805;19;2004446;-78
2023/03/20 03:45:26;;;;;;;4.05;2.50;;;10.10;99.90;;;;;;7390545;19;20337;-78
2023/03/20 03:47:54;;;;;;;2.80;2.55;;;10.20;99.90;;;;;;7390463;19;20353;-82
2023/03/20 03:50:25;;;;;;;2.60;2.40;;;10.20;99.90;;;;;;7389262;19;20301;-80
2023/03/20 03:52:58;;;;;;;2.50;2.30;;;10.10;99.90;;;;;;7391786;19;20336;-78
2023/03/20 03:55:25;;;;;;;2.63;2.42;;;10.10;99.90;;;;;;7389509;19;20327;-80
2023/03/20 03:58:05;;;;;;;2.70;2.28;;;10.10;99.90;;;;;;7388657;19;20387;-81
2023/03/20 04:00:31;;;;;;;2.88;2.45;;;10.10;99.90;;;;;;7388392;19;20317;-80
2023/03/20 04:02:57;;;;;;;3.15;2.47;;;10.10;99.90;;;;;;7390597;19;20392;-78
2023/03/20 04:05:24;;;;;;;2.58;2.38;;;10.10;99.90;;;;;;7390609;19;20320;-79
2023/03/20 04:07:53;;;;;;;4.30;3.90;;;10.00;99.90;;;;;;7390205;19;20343;-79
2023/03/20 04:10:18;;;;;;;3.10;2.80;;;10.00;99.90;;;;;;7390412;19;20408;-79
2023/03/20 04:12:44;;;;;;;3.10;2.90;;;10.00;99.90;;;;;;7389383;19;20313;-79
2023/03/20 04:15:11;;;;;;;3.70;3.38;;;10.10;99.90;;;;;;7390136;19;20323;-80
2023/03/20 04:17:37;;;;;;;5.60;3.90;;;10.00;99.90;;;;;;7389455;19;20309;-80
2023/03/20 04:20:03;;;;;;;28.27;16.58;;;10.10;99.90;;;;;;7388744;19;20312;-78
2023/03/20 04:22:30;;;;;;;11.32;7.95;;;10.00;99.90;;;;;;7388891;19;20687;-80
2023/03/20 04:25:03;;;;;;;4.10;3.17;;;10.00;99.90;;;;;;7391732;19;20305;-78
2023/03/20 04:27:29;;;;;;;4.18;2.75;;;10.00;99.90;;;;;;7384509;19;20346;-83
2023/03/20 04:29:55;;;;;;;4.68;3.15;;;10.00;99.90;;;;;;7397080;19;20317;-79
2023/03/20 04:32:44;;;;;;;10.87;7.50;;;10.00;99.90;;;;;;7185555;19;2004532;-87
2023/03/20 04:35:33;;;;;;;7.32;5.40;;;10.00;99.90;;;;;;7386480;19;20340;-81
2023/03/20 04:38:04;;;;;;;4.03;3.60;;;9.90;99.90;;;;;;7383681;19;20323;-80
2023/03/20 04:40:32;;;;;;;4.15;3.30;;;9.90;99.90;;;;;;7382927;19;20337;-81
2023/03/20 04:42:57;;;;;;;3.42;3.13;;;9.90;99.90;;;;;;7384058;19;20352;-80
2023/03/20 04:45:23;;;;;;;3.30;2.77;;;9.90;99.90;;;;;;7381516;19;20392;-80
2023/03/20 04:47:49;;;;;;;3.08;2.80;;;9.80;99.90;;;;;;7382724;19;20351;-78
2023/03/20 04:50:18;;;;;;;3.40;3.10;;;9.80;99.90;;;;;;7385920;19;20324;-77
2023/03/20 04:52:50;;;;;;;4.40;3.00;;;9.70;99.90;;;;;;7380486;19;20328;-77
2023/03/20 04:55:16;;;;;;;3.78;3.10;;;9.70;99.90;;;;;;7381118;19;20337;-80
2023/03/20 04:57:42;;;;;;;3.40;3.10;;;9.60;99.90;;;;;;7387827;19;20336;-78
2023/03/20 05:00:10;;;;;;;3.58;3.13;;;9.60;99.90;;;;;;7386924;19;20336;-76
2023/03/20 05:02:36;;;;;;;3.20;2.80;;;9.60;99.90;;;;;;7381677;19;20336;-77
2023/03/20 05:05:03;;;;;;;4.73;3.23;;;9.60;99.90;;;;;;7385183;19;20407;-76
2023/03/20 05:07:30;;;;;;;3.75;3.00;;;9.60;99.90;;;;;;7390790;19;20379;-78
2023/03/20 05:10:00;;;;;;;3.60;3.30;;;9.60;99.90;;;;;;7390635;19;20369;-80
2023/03/20 05:12:27;;;;;;;3.17;2.92;;;9.60;99.90;;;;;;7392854;19;20336;-80
2023/03/20 05:15:11;;;;;;;3.42;3.13;;;9.60;99.90;;;;;;7395602;19;20336;-79
2023/03/20 05:18:12;;;;;;;3.28;2.97;;;9.60;99.90;;;;;;7185159;19;2004392;-83
2023/03/20 05:20:57;;;;;;;4.70;3.50;;;9.60;99.90;;;;;;7389727;19;20794;-80
2023/03/20 05:23:49;;;;;;;3.30;2.80;;;9.60;99.90;;;;;;7285276;19;2004507;-80
2023/03/20 05:26:35;;;;;;;4.18;2.97;;;9.60;99.90;;;;;;7389934;19;20301;-80
2023/03/20 05:29:26;;;;;;;3.50;3.20;;;9.60;99.90;;;;;;7286561;19;2004603;-82
2023/03/20 05:32:27;;;;;;;3.67;3.35;;;9.60;99.90;;;;;;7285539;19;2004541;-77
2023/03/20 05:35:18;;;;;;;3.88;3.28;;;9.60;99.90;;;;;;7394270;19;20333;-89
2023/03/20 05:37:48;;;;;;;4.95;3.15;;;9.60;99.90;;;;;;7309690;19;2004437;-90
2023/03/20 05:40:32;;;;;;;12.02;8.20;;;9.60;99.90;;;;;;7407173;19;20327;-78
2023/03/20 05:43:17;;;;;;;4.55;4.07;;;9.60;99.90;;;;;;7293406;19;2004173;-75
2023/03/20 05:45:56;;;;;;;4.25;3.75;;;9.70;99.90;;;;;;7374930;19;20355;-79
2023/03/20 05:48:27;;;;;;;4.03;3.58;;;9.60;99.90;;;;;;7393450;19;20355;-78
2023/03/20 05:51:08;;;;;;;3.70;3.35;;;9.60;99.90;;;;;;7389205;19;20329;-82
2023/03/20 05:53:54;;;;;;;3.90;3.58;;;9.60;99.90;;;;;;7285706;19;2004656;-78
2023/03/20 05:56:38;;;;;;;4.07;3.50;;;9.60;99.90;;;;;;7391396;19;20309;-83
2023/03/20 05:59:22;;;;;;;4.18;3.80;;;9.60;99.90;;;;;;7288949;19;2004532;-79
2023/03/20 06:02:16;;;;;;;4.00;3.70;;;9.60;99.90;;;;;;7279332;19;2004315;-78
2023/03/20 06:04:48;;;;;;;5.30;3.80;;;9.60;99.90;;;;;;7390128;19;20354;-79
2023/03/20 06:07:20;;;;;;;5.07;4.47;;;9.60;99.90;;;;;;7292590;19;2004613;-78
2023/03/20 06:09:55;;;;;;;4.22;3.60;;;9.60;99.90;;;;;;7390102;19;20345;-79
2023/03/20 06:12:21;;;;;;;4.13;3.65;;;9.60;99.90;;;;;;7383586;19;20420;-78
2023/03/20 06:14:47;;;;;;;4.25;3.85;;;9.70;99.90;;;;;;7388093;19;20392;-77
2023/03/20 06:17:31;;;;;;;3.63;3.23;;;9.70;99.90;;;;;;7402113;19;20360;-84
2023/03/20 06:20:01;;;;;;;4.10;3.43;;;9.70;99.90;;;;;;7406547;19;20324;-88
2023/03/20 06:22:28;;;;;;;4.00;3.30;;;9.80;99.90;;;;;;7404159;19;20373;-90
2023/03/20 06:24:55;;;;;;;4.43;4.00;;;9.80;99.90;;;;;;7409040;19;20356;-89
2023/03/20 06:27:26;;;;;;;5.78;3.63;;;9.90;99.90;;;;;;7408304;19;20442;-87
2023/03/20 06:29:52;;;;;;;5.63;3.63;;;9.90;99.90;;;;;;7407244;19;20360;-87
2023/03/20 06:32:25;;;;;;;3.90;3.60;;;9.90;99.90;;;;;;7404341;19;20357;-85
2023/03/20 06:34:54;;;;;;;4.07;3.67;;;9.90;99.90;;;;;;7407470;19;20416;-93
2023/03/20 06:37:20;;;;;;;4.63;4.05;;;10.00;99.90;;;;;;7407953;19;20405;-87
2023/03/20 06:39:46;;;;;;;3.95;3.65;;;9.90;99.90;;;;;;7409049;19;20978;-91
2023/03/20 06:42:12;;;;;;;4.20;3.80;;;10.00;99.90;;;;;;7409373;19;20320;-88
2023/03/20 06:44:40;;;;;;;4.22;3.70;;;10.00;99.90;;;;;;7409938;19;20332;-92
2023/03/20 06:47:11;;;;;;;4.13;3.72;;;10.00;99.90;;;;;;7307499;19;2004520;-87
2023/03/20 06:49:37;;;;;;;3.95;3.55;;;10.10;99.90;;;;;;7409611;19;20339;-87
2023/03/20 06:52:04;;;;;;;4.70;4.03;;;10.00;99.90;;;;;;7407648;19;20317;-88
2023/03/20 06:54:31;;;;;;;4.43;4.03;;;10.10;99.90;;;;;;7408062;19;20324;-87
2023/03/20 06:56:56;;;;;;;5.05;3.90;;;10.00;99.90;;;;;;7408550;19;20378;-88
2023/03/20 06:59:22;;;;;;;4.97;3.80;;;10.10;99.90;;;;;;7410028;19;20320;-85
2023/03/20 07:01:51;;;;;;;4.60;3.60;;;10.20;99.90;;;;;;7409125;19;20348;-89
2023/03/20 07:04:17;;;;;;;4.37;3.60;;;10.30;99.90;;;;;;7409593;19;20311;-90
2023/03/20 07:06:47;;;;;;;4.20;3.80;;;10.20;99.90;;;;;;7411808;19;20344;-91
2023/03/20 07:09:13;;;;;;;4.00;3.55;;;10.30;99.90;;;;;;7409912;19;20300;-92
2023/03/20 07:11:39;;;;;;;4.10;3.70;;;10.30;99.90;;;;;;7410227;19;20304;-85
2023/03/20 07:14:04;;;;;;;4.32;3.92;;;10.40;99.90;;;;;;7407656;19;20316;-91
2023/03/20 07:16:56;;;;;;;4.82;3.88;;;10.30;99.90;;;;;;7300710;19;2004534;-90
2023/03/20 07:19:23;;;;;;;4.20;3.80;;;10.30;99.90;;;;;;7402698;19;20305;-86
2023/03/20 07:21:56;;;;;;;4.57;4.18;;;10.20;99.90;;;;;;7407427;19;20305;-86
2023/03/20 07:24:22;;;;;;;5.65;4.40;;;10.30;99.90;;;;;;7407732;19;20340;-84
2023/03/20 07:26:47;;;;;;;5.67;3.90;;;10.40;99.90;;;;;;7401163;19;20337;-87
2023/03/20 07:29:14;;;;;;;6.28;4.38;;;10.40;99.90;;;;;;7397222;19;20405;-82
2023/03/20 07:31:40;;;;;;;4.90;4.40;;;10.40;99.90;;;;;;7395857;19;20384;-82
2023/03/20 07:34:16;;;;;;;4.53;4.13;;;10.50;99.90;;;;;;7292959;19;2004278;-85
2023/03/20 07:36:43;;;;;;;5.93;4.60;;;10.50;99.90;;;;;;7399720;19;20300;-87
2023/03/20 07:39:10;;;;;;;8.17;4.60;;;10.60;99.90;;;;;;7397065;19;20301;-84
2023/03/20 07:41:39;;;;;;;5.07;4.57;;;10.60;99.90;;;;;;7396209;19;20312;-87
2023/03/20 07:44:09;;;;;;;5.78;4.90;;;10.50;99.90;;;;;;7399986;19;20308;-85
2023/03/20 07:46:47;;;;;;;5.03;4.53;;;10.60;99.90;;;;;;7297651;19;2004167;-86
2023/03/20 07:49:17;;;;;;;6.70;5.03;;;10.60;99.90;;;;;;7397679;19;20317;-83
2023/03/20 07:51:47;;;;;;;11.25;7.63;;;10.60;99.90;;;;;;7395763;19;20309;-81
2023/03/20 07:54:12;;;;;;;9.52;5.22;;;10.60;99.90;;;;;;7403811;19;20296;-84
2023/03/20 07:56:38;;;;;;;5.20;4.63;;;10.60;99.90;;;;;;7405925;19;20300;-81
2023/03/20 07:59:04;;;;;;;5.60;4.83;;;10.70;99.90;;;;;;7398290;19;20316;-84
2023/03/20 08:01:29;;;;;;;5.75;4.72;;;10.80;99.90;;;;;;7398260;19;20332;-90
2023/03/20 08:03:55;;;;;;;5.70;4.30;;;10.80;99.90;;;;;;7403253;19;20328;-89
2023/03/20 08:06:21;;;;;;;5.00;4.50;;;10.90;99.90;;;;;;7404102;19;20383;-86
2023/03/20 08:08:48;;;;;;;8.60;5.30;;;10.90;99.90;;;;;;7406878;19;20357;-84
2023/03/20 08:11:14;;;;;;;5.55;4.90;;;10.90;99.90;;;;;;7404922;19;20321;-85
2023/03/20 08:13:39;;;;;;;6.17;4.80;;;11.00;99.90;;;;;;7400323;19;20324;-93
2023/03/20 08:16:05;;;;;;;5.15;4.63;;;11.00;99.90;;;;;;7401428;19;20429;-89
2023/03/20 08:18:31;;;;;;;5.47;4.70;;;11.00;99.90;;;;;;7402272;19;20328;-87
2023/03/20 08:20:56;;;;;;;4.78;4.38;;;11.10;99.90;;;;;;7399205;19;20345;-79
2023/03/20 08:23:22;;;;;;;5.53;4.83;;;11.10;99.90;;;;;;7400162;19;20338;-82
2023/03/20 08:25:48;;;;;;;5.63;4.80;;;11.10;99.90;;;;;;7397219;19;20361;-83
2023/03/20 08:28:14;;;;;;;5.65;5.15;;;11.10;99.90;;;;;;7399568;19;20320;-88
2023/03/20 08:30:40;;;;;;;5.47;4.97;;;11.10;99.90;;;;;;7396618;19;20331;-83
2023/03/20 08:33:06;;;;;;;6.05;5.10;;;11.20;99.90;;;;;;7404522;19;20332;-84
2023/03/20 08:35:31;;;;;;;5.30;4.67;;;11.20;99.90;;;;;;7403075;19;20324;-83
2023/03/20 08:37:57;;;;;;;6.20;4.85;;;11.20;99.90;;;;;;7399859;19;20349;-81
2023/03/20 08:40:22;;;;;;;5.60;4.90;;;11.30;99.90;;;;;;7393316;19;20368;-82
2023/03/20 08:42:48;;;;;;;5.82;4.82;;;11.30;99.90;;;;;;7395752;19;20341;-82
2023/03/20 08:45:14;;;;;;;5.35;4.82;;;11.30;99.90;;;;;;7399860;19;20360;-86
2023/03/20 08:47:39;;;;;;;5.88;4.93;;;11.30;99.90;;;;;;7406036;19;20316;-82
2023/03/20 08:50:06;;;;;;;7.83;5.53;;;11.40;99.90;;;;;;7401195;19;20292;-81
2023/03/20 08:52:32;;;;;;;7.15;4.88;;;11.50;99.90;;;;;;7402323;19;20316;-82
2023/03/20 08:54:57;;;;;;;5.75;4.85;;;11.60;99.90;;;;;;7410147;19;20336;-90
2023/03/20 08:57:23;;;;;;;6.20;5.40;;;11.60;99.90;;;;;;7409100;19;20687;-85
2023/03/20 08:59:49;;;;;;;5.57;4.72;;;11.70;99.90;;;;;;7407222;19;20328;-87
2023/03/20 09:02:15;;;;;;;5.70;4.97;;;11.80;99.90;;;;;;7404856;19;20344;-82
2023/03/20 09:04:40;;;;;;;6.45;5.15;;;11.70;99.90;;;;;;7411022;19;20324;-85
2023/03/20 09:07:06;;;;;;;5.55;4.93;;;11.70;99.90;;;;;;7404184;19;20320;-77
2023/03/20 09:09:32;;;;;;;8.20;5.00;;;11.70;99.90;;;;;;7399171;19;20309;-82
2023/03/20 09:11:58;;;;;;;5.38;4.88;;;11.70;99.90;;;;;;7399504;19;20361;-79
2023/03/20 09:14:24;;;;;;;7.10;5.70;;;11.60;99.90;;;;;;7405349;19;20336;-87
2023/03/20 09:16:50;;;;;;;6.87;5.30;;;11.70;99.90;;;;;;7405274;19;20356;-85
2023/03/20 09:19:16;;;;;;;5.90;5.30;;;11.50;99.90;;;;;;7403627;19;20332;-84
2023/03/20 09:21:41;;;;;;;6.07;5.50;;;11.50;99.90;;;;;;7403707;19;20329;-83
2023/03/20 09:24:07;;;;;;;5.70;5.10;;;11.50;99.90;;;;;;7403857;19;20316;-85
2023/03/20 09:26:33;;;;;;;5.75;5.18;;;11.50;99.90;;;;;;7405698;19;20313;-82
2023/03/20 09:28:58;;;;;;;8.60;5.70;;;11.40;99.90;;;;;;7408777;19;20826;-83
2023/03/20 09:31:24;;;;;;;6.07;5.47;;;11.40;99.90;;;;;;7410704;19;20325;-90
2023/03/20 09:33:50;;;;;;;7.67;5.53;;;11.30;99.90;;;;;;7415537;19;20349;-89
2023/03/20 09:36:15;;;;;;;7.80;5.90;;;11.30;99.90;;;;;;7417423;19;20301;-87
2023/03/20 09:38:41;;;;;;;7.43;5.57;;;11.30;99.90;;;;;;7420686;19;20321;-88
2023/03/20 09:41:12;;;;;;;6.20;5.60;;;11.30;99.90;;;;;;7416648;19;20312;-88
2023/03/20 09:44:11;;;;;;;6.43;5.57;;;11.20;99.90;;;;;;7415582;19;20353;-89
2023/03/20 09:46:48;;;;;;;10.63;6.70;;;11.20;99.90;;;;;;7306863;19;2004020;-85
2023/03/20 09:49:26;;;;;;;7.13;6.03;;;11.00;99.90;;;;;;7305947;19;2004182;-83
2023/03/20 09:51:55;;;;;;;6.45;5.70;;;11.00;99.90;;;;;;7409397;19;20441;-87
2023/03/20 09:54:47;;;;;;;7.57;5.90;;;10.80;99.90;;;;;;7416077;19;21222;-90
2023/03/20 09:57:19;;;;;;;8.73;6.25;;;10.80;99.90;;;;;;7312909;19;2004599;-90
2023/03/20 09:59:44;;;;;;;7.38;6.05;;;10.90;99.90;;;;;;7417961;19;20328;-85
2023/03/20 10:02:14;;;;;;;6.77;5.97;;;10.80;99.90;;;;;;7417461;19;20837;-88
2023/03/20 10:04:40;;;;;;;8.15;6.25;;;10.70;99.90;;;;;;7414976;19;20313;-89
2023/03/20 10:07:05;;;;;;;7.37;6.47;;;10.60;99.90;;;;;;7416557;19;20326;-90
2023/03/20 10:09:32;;;;;;;6.75;6.05;;;10.60;99.90;;;;;;7416886;19;20337;-88
2023/03/20 10:12:41;;;;;;;7.25;6.28;;;10.70;99.90;;;;;;7416769;19;20356;-87
2023/03/20 10:15:16;;;;;;;6.80;5.82;;;10.60;99.90;;;;;;7312900;19;2004406;-88
2023/03/20 10:18:04;;;;;;;6.75;6.05;;;10.70;99.90;;;;;;7414374;19;20820;-86
2023/03/20 10:20:43;;;;;;;7.70;6.07;;;10.70;99.90;;;;;;7312743;19;2004321;-86
2023/03/20 10:23:24;;;;;;;7.70;6.45;;;10.60;99.90;;;;;;7412177;19;20348;-82
2023/03/20 10:25:53;;;;;;;6.60;5.90;;;10.60;99.90;;;;;;7300198;19;2003989;-80
2023/03/20 10:28:42;;;;;;;7.10;6.10;;;10.60;99.90;;;;;;7386293;19;20696;-77
2023/03/20 10:31:21;;;;;;;7.57;6.72;;;10.60;99.90;;;;;;7389615;19;20319;-80
2023/03/20 10:33:48;;;;;;;8.25;6.80;;;10.70;99.90;;;;;;7282723;19;2004637;-78
2023/03/20 10:36:34;;;;;;;7.95;6.32;;;10.50;99.90;;;;;;7391549;19;20313;-79
2023/03/20 10:39:14;;;;;;;8.90;6.77;;;10.60;99.90;;;;;;7389650;19;20317;-75
2023/03/20 10:41:42;;;;;;;7.30;6.50;;;10.60;99.90;;;;;;7403945;19;20321;-85
2023/03/20 10:44:13;;;;;;;7.72;6.93;;;10.60;99.90;;;;;;7412824;19;20386;-87
2023/03/20 10:46:44;;;;;;;10.75;7.53;;;10.60;99.90;;;;;;7407058;19;20325;-83
2023/03/20 10:49:22;;;;;;;9.85;7.70;;;10.50;99.90;;;;;;7407841;19;20337;-88
2023/03/20 10:51:51;;;;;;;10.13;8.18;;;10.40;99.90;;;;;;7306046;19;2004341;-87
2023/03/20 10:54:27;;;;;;;9.20;7.55;;;10.30;99.90;;;;;;7412878;19;20317;-86
2023/03/20 10:56:55;;;;;;;11.15;8.48;;;10.50;99.90;;;;;;7406327;19;20337;-80
2023/03/20 10:59:33;;;;;;;10.98;8.77;;;10.60;99.90;;;;;;7403710;19;20321;-82
2023/03/20 11:01:59;;;;;;;12.85;9.40;;;10.60;99.90;;;;;;7404037;19;20317;-82
2023/03/20 11:04:25;;;;;;;11.18;9.20;;;10.60;99.90;;;;;;7400918;19;20311;-81
2023/03/20 11:07:05;;;;;;;10.48;8.93;;;10.50;99.90;;;;;;7399559;19;20321;-85
2023/03/20 11:09:31;;;;;;;10.60;9.50;;;10.20;99.90;;;;;;7398148;19;20317;-85
2023/03/20 11:11:58;;;;;;;10.38;9.05;;;10.20;99.90;;;;;;7398911;19;20352;-82
2023/03/20 11:14:37;;;;;;;12.63;9.77;;;10.20;99.90;;;;;;7400388;19;22835;-80
2023/03/20 11:17:03;;;;;;;11.60;9.73;;;10.20;99.90;;;;;;7400695;19;21719;-82
2023/03/20 11:19:32;;;;;;;11.95;8.95;;;10.30;99.90;;;;;;7400657;19;20325;-84
2023/03/20 11:22:00;;;;;;;10.75;8.55;;;10.30;99.90;;;;;;7400297;19;20333;-82
2023/03/20 11:24:37;;;;;;;13.07;9.13;;;10.40;99.90;;;;;;7399180;19;20337;-80
2023/03/20 11:27:10;;;;;;;10.38;8.18;;;10.40;99.90;;;;;;7401599;19;20337;-88
2023/03/20 11:29:35;;;;;;;12.20;9.13;;;10.30;99.90;;;;;;7401853;19;20301;-90
2023/03/20 11:32:30;;;;;;;11.43;8.65;;;10.30;99.90;;;;;;7402578;19;20324;-81
2023/03/20 11:34:56;;;;;;;11.57;8.75;;;10.40;99.90;;;;;;7294690;19;2004493;-81
2023/03/20 11:37:27;;;;;;;10.38;8.48;;;10.50;99.90;;;;;;7401566;19;20368;-84
2023/03/20 11:39:57;;;;;;;11.48;8.27;;;10.50;99.90;;;;;;7406570;19;20315;-77
2023/03/20 11:42:24;;;;;;;13.82;9.70;;;10.60;99.90;;;;;;7384231;19;20352;-83
2023/03/20 11:44:56;;;;;;;12.30;9.73;;;10.60;99.90;;;;;;7383984;19;20756;-79
2023/03/20 11:47:23;;;;;;;11.02;9.30;;;10.30;99.90;;;;;;7386462;19;20316;-78
2023/03/20 11:49:59;;;;;;;15.10;10.30;;;10.40;99.90;;;;;;7384492;19;20336;-78
2023/03/20 11:52:36;;;;;;;14.50;10.30;;;10.50;99.90;;;;;;7407759;19;20311;-88
2023/03/20 11:55:11;;;;;;;13.85;10.73;;;10.60;99.90;;;;;;7414213;19;20356;-88
2023/03/20 11:57:38;;;;;;;15.73;10.75;;;10.50;99.90;;;;;;7414812;19;20336;-86
2023/03/20 12:00:05;;;;;;;15.65;10.95;;;10.40;99.90;;;;;;7414791;19;20293;-89
2023/03/20 12:02:31;;;;;;;16.52;11.18;;;10.40;99.90;;;;;;7413623;19;21365;-90
2023/03/20 12:04:59;;;;;;;15.77;11.13;;;10.30;99.90;;;;;;7415344;19;20429;-86
2023/03/20 12:07:32;;;;;;;19.92;12.93;;;10.40;99.90;;;;;;7414921;19;20321;-84
2023/03/20 12:10:03;;;;;;;18.30;12.82;;;10.30;99.90;;;;;;7415213;19;20351;-85
2023/03/20 12:12:44;;;;;;;16.95;11.65;;;10.40;99.90;;;;;;7413500;19;20428;-89
2023/03/20 12:15:17;;;;;;;15.40;11.50;;;10.50;99.90;;;;;;7413540;19;20301;-89
2023/03/20 12:17:59;;;;;;;18.48;12.20;;;10.60;99.90;;;;;;7414867;19;20324;-87
2023/03/20 12:20:57;;;;;;;17.23;12.52;;;10.60;99.90;;;;;;7305990;19;2004310;-91
2023/03/20 12:23:39;;;;;;;17.13;12.15;;;10.60;99.90;;;;;;7308270;19;2004237;-90
2023/03/20 12:26:14;;;;;;;15.80;12.07;;;10.60;99.90;;;;;;7410606;19;20327;-89
2023/03/20 12:29:05;;;;;;;16.17;12.45;;;10.80;99.90;;;;;;7411975;19;20293;-89
2023/03/20 12:31:50;;;;;;;17.05;12.20;;;10.80;99.90;;;;;;7306456;19;2004592;-89
2023/03/20 12:34:26;;;;;;;16.88;11.85;;;10.80;99.90;;;;;;7307350;19;2004317;-85
2023/03/20 12:36:54;;;;;;;16.83;11.35;;;10.70;99.90;;;;;;7408749;19;20365;-88
2023/03/20 12:39:24;;;;;;;14.33;11.10;;;10.80;99.90;;;;;;7411564;19;20346;-90
2023/03/20 12:42:05;;;;;;;14.85;11.25;;;10.90;99.90;;;;;;7407923;19;20347;-84
2023/03/20 12:44:35;;;;;;;15.38;10.27;;;10.90;99.90;;;;;;7411397;19;20400;-87
2023/03/20 12:47:39;;;;;;;14.70;10.52;;;10.90;99.90;;;;;;7412089;19;20357;-87
2023/03/20 12:50:29;;;;;;;15.43;11.17;;;10.80;99.90;;;;;;7306270;19;2004239;-86
2023/03/20 12:53:32;;;;;;;17.52;11.50;;;10.90;99.90;;;;;;7306608;19;2004233;-88
2023/03/20 12:56:07;;;;;;;16.60;11.00;;;10.90;99.90;;;;;;7308540;19;2004185;-89
2023/03/20 12:58:40;;;;;;;15.15;10.45;;;11.00;99.90;;;;;;7411638;19;20324;-87
2023/03/20 13:01:21;;;;;;;13.38;10.00;;;11.00;99.90;;;;;;7408707;19;20324;-92
2023/03/20 13:03:54;;;;;;;12.18;9.73;;;11.20;99.90;;;;;;7307609;19;2004914;-91
2023/03/20 13:06:28;;;;;;;14.65;10.45;;;11.50;99.90;;;;;;7409122;19;20317;-88
2023/03/20 13:09:26;;;;;;;14.35;10.10;;;11.60;99.90;;;;;;7412433;19;20354;-86
2023/03/20 13:12:13;;;;;;;11.73;8.70;;;11.70;99.90;;;;;;7306234;19;2004186;-86